createdAt,value
2023-04-08T00:00:25.428Z,8.30
2023-04-08T00:02:58.761Z,8.09
2023-04-08T00:05:32.067Z,8.54
2023-04-08T00:08:05.362Z,8.21
2023-04-08T00:10:40.112Z,8.12
2023-04-08T00:13:14.953Z,8.43
2023-04-08T00:15:50.258Z,8.09
2023-04-08T00:18:23.595Z,7.91
2023-04-08T00:20:57.297Z,7.59
2023-04-08T00:23:30.642Z,8.25
2023-04-08T00:26:05.063Z,8.28
2023-04-08T00:28:37.941Z,8.37
2023-04-08T00:31:11.037Z,8.46
2023-04-08T00:33:44.109Z,8.42
2023-04-08T00:36:17.741Z,8.36
2023-04-08T00:38:51.251Z,8.12
2023-04-08T00:41:25.955Z,7.97
2023-04-08T00:43:59.045Z,7.42
2023-04-08T00:46:32.354Z,7.92
2023-04-08T00:49:05.602Z,7.95
2023-04-08T00:51:38.639Z,8.01
2023-04-08T00:54:12.038Z,7.60
2023-04-08T00:56:46.915Z,7.30
2023-04-08T00:59:19.984Z,7.27
2023-04-08T01:01:57.086Z,7.83
2023-04-08T01:04:34.510Z,7.62
2023-04-08T01:07:11.019Z,7.00
2023-04-08T01:09:47.028Z,6.67
2023-04-08T01:12:27.332Z,7.28
2023-04-08T01:15:02.736Z,7.69
2023-04-08T01:17:37.811Z,7.83
2023-04-08T01:20:11.654Z,6.82
2023-04-08T01:22:54.889Z,7.01
2023-04-08T01:25:31.349Z,7.01
2023-04-08T01:28:07.123Z,7.36
2023-04-08T01:30:40.730Z,7.43
2023-04-08T01:33:14.928Z,7.60
2023-04-08T01:35:48.295Z,7.22
2023-04-08T01:38:21.873Z,6.57
2023-04-08T01:40:56.413Z,6.59
2023-04-08T01:43:32.316Z,7.23
2023-04-08T01:46:06.833Z,7.05
2023-04-08T01:48:41.562Z,6.89
2023-04-08T01:51:14.800Z,7.42
2023-04-08T01:53:47.998Z,6.89
2023-04-08T01:56:23.079Z,6.37
2023-04-08T01:58:59.909Z,6.69
2023-04-08T02:01:33.867Z,7.30
2023-04-08T02:04:07.049Z,7.28
2023-04-08T02:06:40.352Z,7.48
2023-04-08T02:09:13.677Z,7.53
2023-04-08T02:11:47.253Z,7.66
2023-04-08T02:14:23.113Z,7.66
2023-04-08T02:17:00.759Z,7.44
2023-04-08T02:19:38.885Z,6.89
2023-04-08T02:22:14.242Z,7.07
2023-04-08T02:24:48.197Z,6.93
2023-04-08T02:27:21.531Z,7.28
2023-04-08T02:29:58.326Z,7.48
2023-04-08T02:32:32.168Z,7.72
2023-04-08T02:35:06.430Z,7.41
2023-04-08T02:37:39.618Z,7.67
2023-04-08T02:40:25.816Z,7.35
2023-04-08T02:42:59.323Z,7.64
2023-04-08T02:45:34.769Z,7.57
2023-04-08T02:48:08.221Z,7.47
2023-04-08T02:50:41.243Z,7.53
2023-04-08T02:53:14.105Z,7.71
2023-04-08T02:55:47.018Z,7.24
2023-04-08T02:58:20.161Z,6.63
2023-04-08T03:00:54.954Z,6.66
2023-04-08T03:03:29.990Z,6.47
2023-04-08T03:06:03.391Z,6.59
2023-04-08T03:08:36.340Z,6.44
2023-04-08T03:11:09.704Z,6.14
2023-04-08T03:13:43.764Z,6.07
2023-04-08T03:16:18.906Z,6.34
2023-04-08T03:18:52.559Z,6.60
2023-04-08T03:21:27.096Z,6.68
2023-04-08T03:24:00.900Z,6.42
2023-04-08T03:26:33.837Z,6.44
2023-04-08T03:29:08.061Z,6.29
2023-04-08T03:31:42.786Z,6.49
2023-04-08T03:34:15.920Z,6.17
2023-04-08T03:36:48.827Z,6.00
2023-04-08T03:39:21.920Z,6.26
2023-04-08T03:41:54.901Z,6.70
2023-04-08T03:44:28.205Z,6.76
2023-04-08T03:47:02.577Z,6.72
2023-04-08T03:49:35.703Z,6.56
2023-04-08T03:52:09.207Z,6.44
2023-04-08T03:54:42.133Z,6.42
2023-04-08T03:57:16.107Z,6.67
2023-04-08T03:59:49.598Z,6.74
2023-04-08T04:02:24.491Z,6.78
2023-04-08T04:04:57.652Z,7.19
2023-04-08T04:07:30.661Z,6.59
2023-04-08T04:10:03.584Z,6.35
2023-04-08T04:12:37.395Z,6.40
2023-04-08T04:15:11.593Z,6.69
2023-04-08T04:17:48.916Z,6.94
2023-04-08T04:20:22.312Z,7.09
2023-04-08T04:22:55.205Z,7.14
2023-04-08T04:25:28.476Z,7.22
2023-04-08T04:28:02.895Z,6.79
2023-04-08T04:30:37.685Z,6.69
2023-04-08T04:33:12.008Z,6.74
2023-04-08T04:35:44.994Z,6.76
2023-04-08T04:38:18.287Z,6.66
2023-04-08T04:40:51.378Z,6.93
2023-04-08T04:43:24.615Z,7.04
2023-04-08T04:45:58.002Z,6.82
2023-04-08T04:48:32.528Z,7.41
2023-04-08T04:51:07.517Z,7.31
2023-04-08T04:53:40.618Z,7.13
2023-04-08T04:56:13.643Z,7.18
2023-04-08T04:58:46.863Z,7.44
2023-04-08T05:01:19.949Z,7.55
2023-04-08T05:03:54.246Z,6.90
2023-04-08T05:06:27.642Z,6.58
2023-04-08T05:09:01.939Z,7.01
2023-04-08T05:11:35.095Z,6.80
2023-04-08T05:14:09.132Z,6.75
2023-04-08T05:16:42.860Z,6.99
2023-04-08T05:19:17.275Z,7.18
2023-04-08T05:21:50.488Z,6.85
2023-04-08T05:24:23.468Z,7.11
2023-04-08T05:26:57.905Z,7.01
2023-04-08T05:29:31.197Z,6.97
2023-04-08T05:32:04.275Z,7.20
2023-04-08T05:34:38.721Z,7.02
2023-04-08T05:37:11.815Z,6.87
2023-04-08T05:39:44.882Z,6.74
2023-04-08T05:42:18.221Z,7.15
2023-04-08T05:44:51.645Z,7.39
2023-04-08T05:47:24.684Z,7.06
2023-04-08T05:50:00.526Z,7.11
2023-04-08T05:52:33.744Z,7.43
2023-04-08T05:55:07.271Z,7.23
2023-04-08T05:57:40.404Z,6.91
2023-04-08T06:00:17.590Z,7.35
2023-04-08T06:02:51.423Z,7.32
2023-04-08T06:05:25.819Z,6.85
2023-04-08T06:07:58.716Z,6.99
2023-04-08T06:10:32.205Z,7.40
2023-04-08T06:13:06.866Z,7.56
2023-04-08T06:15:39.841Z,7.81
2023-04-08T06:18:12.788Z,7.31
2023-04-08T06:20:47.238Z,7.03
2023-04-08T06:23:20.618Z,7.05
2023-04-08T06:25:55.179Z,7.24
2023-04-08T06:28:30.826Z,7.98
2023-04-08T06:31:03.895Z,7.95
2023-04-08T06:33:37.003Z,7.95
2023-04-08T06:36:13.241Z,7.59
2023-04-08T06:38:46.524Z,7.75
2023-04-08T06:41:19.932Z,7.40
2023-04-08T06:43:52.998Z,7.45
2023-04-08T06:46:26.569Z,8.14
2023-04-08T06:48:59.833Z,8.35
2023-04-08T06:51:34.454Z,8.03
2023-04-08T06:54:10.174Z,8.21
2023-04-08T06:56:44.868Z,8.48
2023-04-08T06:59:17.760Z,8.42
2023-04-08T07:01:51.378Z,8.41
2023-04-08T07:04:24.845Z,8.48
2023-04-08T07:06:59.425Z,8.48
2023-04-08T07:09:32.996Z,8.42
2023-04-08T07:12:06.622Z,8.72
2023-04-08T07:14:39.920Z,8.48
2023-04-08T07:17:13.209Z,8.73
2023-04-08T07:19:46.572Z,8.76
2023-04-08T07:22:21.086Z,8.57
2023-04-08T07:24:54.350Z,8.43
2023-04-08T07:27:27.540Z,8.76
2023-04-08T07:30:01.348Z,8.86
2023-04-08T07:32:34.590Z,9.06
2023-04-08T07:35:08.270Z,8.79
2023-04-08T07:37:42.907Z,9.06
2023-04-08T07:40:16.261Z,9.00
2023-04-08T07:42:49.504Z,9.10
2023-04-08T07:45:22.821Z,9.39
2023-04-08T07:47:55.898Z,9.28
2023-04-08T07:50:28.895Z,9.00
2023-04-08T07:53:03.520Z,9.07
2023-04-08T07:55:36.775Z,9.16
2023-04-08T07:58:09.809Z,9.33
2023-04-08T08:00:43.017Z,9.24
2023-04-08T08:03:16.175Z,9.42
2023-04-08T08:05:49.270Z,9.68
2023-04-08T08:08:24.094Z,9.98
2023-04-08T08:10:57.529Z,9.94
2023-04-08T08:13:32.240Z,10.08
2023-04-08T08:16:09.201Z,9.90
2023-04-08T08:18:42.837Z,10.15
2023-04-08T08:21:16.081Z,10.31
2023-04-08T08:23:51.675Z,10.01
2023-04-08T08:26:24.904Z,9.93
2023-04-08T08:28:57.967Z,10.31
2023-04-08T08:31:31.429Z,10.66
2023-04-08T08:34:04.547Z,10.77
2023-04-08T08:36:37.797Z,10.71
2023-04-08T08:39:13.094Z,10.54
2023-04-08T08:41:46.403Z,10.40
2023-04-08T08:44:19.596Z,10.57
2023-04-08T08:46:53.336Z,10.88
2023-04-08T08:49:26.754Z,11.14
2023-04-08T08:52:01.644Z,11.29
2023-04-08T08:54:36.577Z,11.38
2023-04-08T08:57:17.702Z,11.26
2023-04-08T08:59:50.933Z,10.96
2023-04-08T09:02:25.597Z,11.12
2023-04-08T09:05:00.054Z,11.50
2023-04-08T09:07:36.414Z,11.71
2023-04-08T09:10:29.680Z,11.45
2023-04-08T09:13:04.408Z,11.53
2023-04-08T09:15:37.935Z,11.87
2023-04-08T09:18:22.786Z,11.66
2023-04-08T09:20:56.060Z,11.68
2023-04-08T09:23:42.610Z,11.95
2023-04-08T09:26:18.036Z,11.96
2023-04-08T09:29:11.000Z,11.61
2023-04-08T09:31:55.129Z,11.47
2023-04-08T09:34:29.626Z,11.84
2023-04-08T09:37:02.553Z,11.96
2023-04-08T09:39:35.865Z,11.88
2023-04-08T09:42:13.050Z,12.03
2023-04-08T09:44:47.606Z,11.83
2023-04-08T09:47:22.178Z,11.87
2023-04-08T09:49:56.850Z,11.91
2023-04-08T09:52:31.809Z,12.09
2023-04-08T09:55:05.560Z,12.19
2023-04-08T09:57:43.372Z,12.10
2023-04-08T10:00:17.061Z,12.52
2023-04-08T10:02:56.429Z,12.88
2023-04-08T10:05:31.141Z,12.88
2023-04-08T10:08:04.947Z,12.63
2023-04-08T10:10:40.825Z,12.42
2023-04-08T10:13:16.169Z,12.62
2023-04-08T10:15:49.848Z,12.50
2023-04-08T10:18:33.960Z,12.33
2023-04-08T10:21:27.246Z,12.63
2023-04-08T10:24:06.065Z,12.74
2023-04-08T10:26:40.693Z,12.69
2023-04-08T10:29:34.855Z,12.99
2023-04-08T10:32:10.238Z,12.95
2023-04-08T10:34:52.765Z,13.12
2023-04-08T10:37:25.823Z,13.14
2023-04-08T10:39:58.975Z,13.22
2023-04-08T10:42:32.535Z,13.12
2023-04-08T10:45:06.042Z,13.01
2023-04-08T10:47:40.684Z,12.97
2023-04-08T10:50:14.481Z,12.96
2023-04-08T10:52:48.210Z,13.06
2023-04-08T10:55:24.794Z,12.80
2023-04-08T10:58:06.590Z,12.95
2023-04-08T11:00:41.221Z,13.18
2023-04-08T11:03:15.886Z,13.22
2023-04-08T11:05:50.366Z,13.29
2023-04-08T11:08:29.129Z,13.33
2023-04-08T11:11:02.529Z,13.33
2023-04-08T11:13:37.623Z,13.45
2023-04-08T11:16:18.231Z,13.22
2023-04-08T11:18:53.367Z,13.14
2023-04-08T11:21:29.712Z,13.20
2023-04-08T11:24:02.919Z,13.64
2023-04-08T11:26:37.095Z,13.89
2023-04-08T11:29:12.848Z,14.09
2023-04-08T11:31:47.317Z,13.52
2023-04-08T11:34:25.628Z,13.68
2023-04-08T11:36:59.597Z,13.78
2023-04-08T11:39:32.834Z,13.97
2023-04-08T11:42:06.370Z,14.14
2023-04-08T11:44:39.430Z,14.08
2023-04-08T11:47:12.604Z,14.04
2023-04-08T11:49:47.680Z,13.84
2023-04-08T11:52:20.691Z,13.88
2023-04-08T11:54:56.425Z,13.87
2023-04-08T11:57:29.968Z,13.72
2023-04-08T12:00:03.430Z,13.71
2023-04-08T12:02:36.607Z,13.79
2023-04-08T12:05:11.916Z,13.74
2023-04-08T12:07:45.286Z,13.76
2023-04-08T12:10:18.639Z,13.78
2023-04-08T12:12:52.378Z,13.85
2023-04-08T12:15:25.850Z,13.87
2023-04-08T12:17:59.495Z,13.75
2023-04-08T12:20:33.913Z,13.89
2023-04-08T12:23:08.120Z,13.85
2023-04-08T12:25:41.388Z,13.74
2023-04-08T12:28:14.596Z,13.80
2023-04-08T12:30:47.766Z,14.06
2023-04-08T12:33:20.982Z,14.05
2023-04-08T12:35:55.999Z,13.99
2023-04-08T12:38:29.572Z,14.07
2023-04-08T12:41:03.529Z,14.12
2023-04-08T12:43:36.514Z,14.12
2023-04-08T12:46:09.447Z,14.02
2023-04-08T12:48:45.024Z,14.10
2023-04-08T12:51:19.508Z,14.04
2023-04-08T12:53:53.010Z,14.07
2023-04-08T12:56:26.248Z,13.97
2023-04-08T12:58:59.481Z,13.96
2023-04-08T13:01:32.717Z,13.95
2023-04-08T13:04:06.566Z,13.99
2023-04-08T13:06:41.167Z,14.04
2023-04-08T13:09:15.270Z,13.98
2023-04-08T13:11:51.516Z,13.90
2023-04-08T13:14:25.284Z,13.75
2023-04-08T13:16:58.849Z,13.77
2023-04-08T13:19:31.918Z,13.87
2023-04-08T13:22:06.555Z,13.93
2023-04-08T13:24:39.832Z,13.82
2023-04-08T13:27:12.770Z,13.75
2023-04-08T13:29:45.748Z,13.81
2023-04-08T13:32:18.976Z,13.92
2023-04-08T13:34:52.394Z,13.86
2023-04-08T13:37:27.470Z,13.83
2023-04-08T13:40:01.111Z,13.99
2023-04-08T13:42:34.514Z,13.84
2023-04-08T13:45:08.327Z,13.75
2023-04-08T13:47:41.627Z,13.86
2023-04-08T13:50:15.460Z,13.83
2023-04-08T13:52:50.609Z,13.90
2023-04-08T13:55:24.423Z,13.93
2023-04-08T13:57:57.969Z,14.01
2023-04-08T14:00:31.675Z,14.03
2023-04-08T14:03:05.561Z,13.89
2023-04-08T14:05:39.473Z,14.02
2023-04-08T14:08:14.842Z,13.99
2023-04-08T14:10:48.695Z,13.90
2023-04-08T14:13:23.284Z,13.79
2023-04-08T14:15:59.041Z,13.82
2023-04-08T14:18:32.936Z,13.86
2023-04-08T14:21:08.310Z,13.86
2023-04-08T14:23:43.458Z,13.90
2023-04-08T14:26:17.021Z,14.03
2023-04-08T14:28:50.944Z,13.90
2023-04-08T14:31:25.214Z,13.85
2023-04-08T14:33:59.578Z,13.98
2023-04-08T14:36:33.247Z,13.95
2023-04-08T14:39:08.517Z,13.84
2023-04-08T14:41:42.186Z,13.93
2023-04-08T14:44:15.652Z,13.91
2023-04-08T14:46:49.637Z,13.70
2023-04-08T14:49:24.453Z,13.77
2023-04-08T14:51:58.126Z,13.82
2023-04-08T14:54:33.147Z,13.81
2023-04-08T14:57:06.671Z,14.04
2023-04-08T14:59:40.470Z,13.88
2023-04-08T15:02:14.559Z,13.98
2023-04-08T15:04:48.408Z,13.97
2023-04-08T15:07:22.266Z,13.87
2023-04-08T15:09:57.627Z,13.87
2023-04-08T15:12:33.711Z,13.83
2023-04-08T15:15:08.673Z,13.76
2023-04-08T15:17:42.906Z,13.74
2023-04-08T15:20:18.626Z,13.89
2023-04-08T15:22:52.602Z,13.71
2023-04-08T15:25:27.225Z,13.72
2023-04-08T15:28:02.710Z,13.69
2023-04-08T15:30:36.872Z,13.71
2023-04-08T15:33:11.134Z,13.76
2023-04-08T15:35:46.535Z,13.74
2023-04-08T15:38:19.993Z,13.73
2023-04-08T15:40:55.152Z,13.67
2023-04-08T15:43:28.250Z,13.72
2023-04-08T15:46:01.499Z,13.62
2023-04-08T15:48:34.505Z,13.74
2023-04-08T15:51:08.495Z,13.73
2023-04-08T15:53:41.955Z,13.77
2023-04-08T15:56:18.229Z,13.82
2023-04-08T15:58:52.084Z,13.74
2023-04-08T16:01:25.617Z,13.71
2023-04-08T16:04:04.198Z,13.50
2023-04-08T16:06:37.630Z,13.54
2023-04-08T16:09:11.336Z,13.59
2023-04-08T16:11:46.768Z,13.40
2023-04-08T16:14:20.920Z,13.44
2023-04-08T16:16:54.583Z,13.52
2023-04-08T16:19:28.596Z,13.47
2023-04-08T16:22:04.397Z,13.57
2023-04-08T16:24:37.960Z,13.46
2023-04-08T16:27:12.784Z,13.58
2023-04-08T16:29:46.957Z,13.60
2023-04-08T16:32:21.222Z,13.49
2023-04-08T16:34:55.493Z,13.47
2023-04-08T16:37:29.446Z,13.33
2023-04-08T16:40:03.623Z,13.34
2023-04-08T16:42:39.704Z,13.30
2023-04-08T16:45:13.800Z,13.24
2023-04-08T16:47:48.099Z,13.25
2023-04-08T16:50:22.429Z,13.17
2023-04-08T16:52:56.509Z,13.28
2023-04-08T16:55:33.894Z,13.15
2023-04-08T16:58:10.574Z,13.06
2023-04-08T17:00:44.937Z,12.87
2023-04-08T17:03:19.393Z,12.91
2023-04-08T17:05:52.690Z,12.94
2023-04-08T17:08:27.214Z,12.68
2023-04-08T17:11:11.085Z,12.83
2023-04-08T17:13:47.696Z,12.72
2023-04-08T17:16:22.140Z,12.66
2023-04-08T17:18:56.409Z,12.69
2023-04-08T17:21:30.641Z,12.61
2023-04-08T17:24:04.813Z,12.39
2023-04-08T17:26:38.991Z,12.56
2023-04-08T17:29:14.437Z,12.66
2023-04-08T17:31:51.155Z,12.62
2023-04-08T17:34:27.226Z,12.12
2023-04-08T17:37:02.962Z,12.50
2023-04-08T17:39:41.334Z,12.28
2023-04-08T17:42:15.601Z,11.88
2023-04-08T17:44:51.749Z,12.40
2023-04-08T17:47:25.638Z,12.41
2023-04-08T17:49:59.856Z,12.48
2023-04-08T17:52:33.714Z,12.56
2023-04-08T17:55:08.795Z,12.83
2023-04-08T17:57:43.400Z,12.90
2023-04-08T18:00:19.240Z,12.83
2023-04-08T18:02:56.316Z,12.27
2023-04-08T18:05:32.456Z,12.51
2023-04-08T18:08:07.029Z,12.37
2023-04-08T18:10:44.018Z,12.30
2023-04-08T18:13:23.816Z,11.75
2023-04-08T18:15:59.389Z,11.82
2023-04-08T18:18:34.909Z,11.44
2023-04-08T18:21:09.579Z,11.51
2023-04-08T18:23:43.910Z,11.53
2023-04-08T18:26:18.181Z,11.98
2023-04-08T18:28:52.226Z,12.16
2023-04-08T18:31:28.144Z,12.31
2023-04-08T18:34:02.984Z,11.55
2023-04-08T18:36:37.313Z,11.42
2023-04-08T18:39:12.667Z,11.48
2023-04-08T18:41:46.840Z,11.40
2023-04-08T18:44:21.284Z,11.32
2023-04-08T18:46:57.250Z,12.22
2023-04-08T18:49:33.793Z,12.02
2023-04-08T18:52:09.198Z,11.81
2023-04-08T18:54:44.494Z,11.45
2023-04-08T18:57:18.714Z,11.38
2023-04-08T18:59:52.785Z,11.05
2023-04-08T19:02:28.674Z,11.23
2023-04-08T19:05:03.188Z,11.21
2023-04-08T19:07:37.492Z,11.51
2023-04-08T19:10:14.207Z,10.85
2023-04-08T19:12:49.450Z,12.34
2023-04-08T19:15:23.631Z,12.17
2023-04-08T19:18:04.014Z,12.65
2023-04-08T19:20:42.664Z,13.05
2023-04-08T19:23:17.273Z,13.63
2023-04-08T19:25:51.260Z,14.14
2023-04-08T19:28:27.722Z,13.00
2023-04-08T19:31:05.393Z,13.65
2023-04-08T19:33:41.326Z,12.41
2023-04-08T19:36:15.269Z,13.16
2023-04-08T19:38:49.382Z,13.74
2023-04-08T19:41:24.020Z,13.49
2023-04-08T19:43:57.912Z,13.49
2023-04-08T19:46:32.310Z,12.85
2023-04-08T19:49:08.436Z,13.67
2023-04-08T19:51:42.592Z,11.86
2023-04-08T19:54:16.838Z,12.79
2023-04-08T19:56:51.097Z,12.94
2023-04-08T19:59:29.186Z,13.74
2023-04-08T20:02:04.765Z,13.10
2023-04-08T20:04:40.147Z,12.53
2023-04-08T20:07:14.842Z,12.63
2023-04-08T20:09:49.040Z,11.82
2023-04-08T20:12:24.710Z,13.32
2023-04-08T20:14:59.175Z,13.44
2023-04-08T20:17:33.508Z,13.77
2023-04-08T20:20:12.111Z,13.31
2023-04-08T20:22:47.257Z,14.24
2023-04-08T20:25:21.320Z,13.80
2023-04-08T20:27:55.347Z,13.89
2023-04-08T20:30:29.449Z,13.07
2023-04-08T20:33:03.722Z,14.29
2023-04-08T20:35:39.466Z,13.04
2023-04-08T20:38:14.029Z,13.31
2023-04-08T20:40:47.945Z,13.10
2023-04-08T20:43:22.105Z,11.84
2023-04-08T20:45:56.538Z,11.69
2023-04-08T20:48:31.265Z,11.94
2023-04-08T20:51:09.378Z,12.49
2023-04-08T20:53:44.561Z,12.22
2023-04-08T20:56:19.425Z,11.99
2023-04-08T20:58:53.778Z,11.55
2023-04-08T21:01:29.262Z,12.52
2023-04-08T21:04:11.111Z,12.48
2023-04-08T21:06:55.001Z,11.88
2023-04-08T21:09:35.514Z,11.43
2023-04-08T21:12:18.913Z,11.23
2023-04-08T21:15:09.851Z,11.04
2023-04-08T21:17:48.582Z,11.41
2023-04-08T21:20:27.030Z,11.26
2023-04-08T21:23:11.274Z,10.59
2023-04-08T21:25:56.365Z,10.91
2023-04-08T21:28:41.482Z,10.85
2023-04-08T21:31:20.525Z,10.69
2023-04-08T21:34:01.783Z,10.91
2023-04-08T21:36:41.757Z,10.95
2023-04-08T21:39:23.411Z,10.02
2023-04-08T21:42:09.183Z,9.79
2023-04-08T21:44:55.408Z,9.83
2023-04-08T21:47:34.860Z,9.83
2023-04-08T21:50:17.150Z,10.43
2023-04-08T21:53:06.919Z,10.33
2023-04-08T21:55:45.134Z,10.06
2023-04-08T21:58:18.366Z,9.67
2023-04-08T22:00:51.709Z,10.15
2023-04-08T22:03:24.789Z,9.56
2023-04-08T22:05:57.661Z,9.33
2023-04-08T22:08:32.558Z,9.50
2023-04-08T22:11:08.931Z,9.15
2023-04-08T22:13:42.481Z,9.34
2023-04-08T22:16:15.983Z,9.24
2023-04-08T22:18:49.109Z,9.17
2023-04-08T22:21:22.835Z,9.36
2023-04-08T22:23:55.830Z,9.48
2023-04-08T22:26:30.187Z,9.19
2023-04-08T22:29:03.595Z,8.77
2023-04-08T22:31:37.083Z,8.54
2023-04-08T22:34:10.072Z,9.63
2023-04-08T22:36:43.246Z,8.88
2023-04-08T22:39:16.436Z,9.21
2023-04-08T22:41:51.113Z,8.96
2023-04-08T22:44:24.277Z,9.37
2023-04-08T22:46:57.419Z,8.97
2023-04-08T22:49:30.477Z,8.43
2023-04-08T22:52:03.521Z,8.32
2023-04-08T22:54:36.879Z,8.79
2023-04-08T22:57:11.247Z,9.09
2023-04-08T22:59:44.707Z,8.88
2023-04-08T23:02:18.104Z,9.36
2023-04-08T23:04:54.260Z,9.72
2023-04-08T23:07:27.214Z,9.11
2023-04-08T23:10:00.475Z,8.49
2023-04-08T23:12:36.104Z,8.29
2023-04-08T23:15:10.306Z,7.90
2023-04-08T23:17:43.273Z,7.94
2023-04-08T23:20:16.382Z,8.45
2023-04-08T23:22:49.717Z,8.29
2023-04-08T23:25:23.336Z,8.11
2023-04-08T23:27:57.858Z,7.95
2023-04-08T23:30:31.157Z,7.90
2023-04-08T23:33:04.478Z,8.70
2023-04-08T23:35:37.468Z,8.25
2023-04-08T23:38:10.737Z,8.26
2023-04-08T23:40:44.001Z,8.18
2023-04-08T23:43:18.348Z,8.73
2023-04-08T23:45:51.734Z,7.98
2023-04-08T23:48:24.730Z,7.64
2023-04-08T23:50:57.935Z,7.43
2023-04-08T23:53:31.101Z,7.42
2023-04-08T23:56:07.590Z,7.55
2023-04-08T23:58:42.078Z,7.66
